Time;durP1;ratioP1;P1;durP2;ratioP2;P2;SDS_P1;SDS_P2;PMS_P1;PMS_P2;Temp;Humidity;BMP_temperature;BMP_pressure;BME280_temperature;BME280_humidity;BME280_pressure;Samples;Min_cycle;Max_cycle;Signal;HPM_P1;HPM_P2
2021/10/22 00:01:03;;;;;;;;;4.67;4.00;;;;;19.27;51.86;97681.38;4945955;28;103982;-85
2021/10/22 00:03:30;;;;;;;;;4.00;4.00;;;;;19.27;51.61;97681.38;4913471;28;105188;-84
2021/10/22 00:05:57;;;;;;;;;4.33;3.67;;;;;19.27;51.54;97673.16;4936861;28;103103;-85
2021/10/22 00:08:27;;;;;;;;;4.33;3.33;;;;;19.27;51.63;97682.22;4958207;28;104580;-85
2021/10/22 00:10:54;;;;;;;;;4.00;4.00;;;;;19.25;51.80;97694.53;4959505;28;104109;-85
2021/10/22 00:13:22;;;;;;;;;4.00;4.00;;;;;19.25;52.11;97680.81;4959837;28;102670;-83
2021/10/22 00:15:49;;;;;;;;;3.00;3.00;;;;;19.24;51.72;97685.50;4966501;28;102499;-84
2021/10/22 00:18:19;;;;;;;;;3.67;3.67;;;;;19.23;51.78;97689.31;4963746;28;102455;-85
2021/10/22 00:20:50;;;;;;;;;4.00;3.00;;;;;19.24;51.74;97696.44;4960488;28;108936;-86
2021/10/22 00:23:17;;;;;;;;;9.33;5.00;;;;;19.24;51.54;97696.44;4956385;28;102144;-85
2021/10/22 00:25:44;;;;;;;;;4.00;3.67;;;;;19.23;51.87;97705.75;4971694;28;103856;-84
2021/10/22 00:28:11;;;;;;;;;3.00;3.00;;;;;19.23;51.69;97700.28;4941177;28;104802;-84
2021/10/22 00:30:38;;;;;;;;;3.33;3.00;;;;;19.23;51.70;97703.03;4958102;28;104278;-84
2021/10/22 00:33:05;;;;;;;;;2.67;2.00;;;;;19.22;51.99;97703.31;4968976;28;103869;-85
2021/10/22 00:35:32;;;;;;;;;3.67;3.00;;;;;19.20;51.86;97709.06;4953556;28;102494;-85
2021/10/22 00:37:59;;;;;;;;;3.00;3.00;;;;;19.20;51.70;97706.34;4958278;28;102279;-85
2021/10/22 00:40:26;;;;;;;;;3.00;3.00;;;;;19.21;51.70;97705.25;4967645;28;110447;-84
2021/10/22 00:42:54;;;;;;;;;4.00;4.00;;;;;19.21;51.68;97707.16;4958599;28;102639;-84
2021/10/22 00:45:22;;;;;;;;;3.67;3.33;;;;;19.21;51.44;97705.25;4948562;28;102597;-85
2021/10/22 00:47:50;;;;;;;;;3.00;3.00;;;;;19.20;51.64;97697.28;4970788;28;103215;-85
2021/10/22 00:50:17;;;;;;;;;2.33;2.33;;;;;19.18;51.64;97703.84;4953636;28;104601;-86
2021/10/22 00:52:47;;;;;;;;;4.00;4.00;;;;;19.18;51.63;97698.38;4964703;28;102263;-86
2021/10/22 00:55:14;;;;;;;;;2.00;2.00;;;;;19.18;51.51;97698.38;4969771;28;103900;-85
2021/10/22 00:57:42;;;;;;;;;4.00;3.00;;;;;19.18;51.58;97692.09;4956648;28;105048;-84
2021/10/22 01:00:10;;;;;;;;;3.00;3.00;;;;;19.18;51.78;97694.84;4955703;28;104089;-85
2021/10/22 01:02:38;;;;;;;;;4.00;4.00;;;;;19.18;51.62;97703.84;4956842;28;103270;-84
2021/10/22 01:05:09;;;;;;;;;3.67;3.33;;;;;19.18;51.54;97692.09;4868948;28;103592;-85
2021/10/22 01:07:39;;;;;;;;;4.00;4.00;;;;;19.16;51.56;97706.06;4890772;28;104292;-85
2021/10/22 01:10:07;;;;;;;;;3.00;3.00;;;;;19.16;51.42;97722.50;4908463;28;104073;-84
2021/10/22 01:12:34;;;;;;;;;3.33;3.00;;;;;19.16;51.36;97716.22;4935108;28;105426;-85
2021/10/22 01:15:02;;;;;;;;;3.00;3.00;;;;;19.14;51.55;97708.25;4920226;28;102695;-84
2021/10/22 01:17:41;;;;;;;;;3.00;3.00;;;;;19.16;51.25;97705.25;4925522;28;103223;-84
2021/10/22 01:20:13;;;;;;;;;3.67;3.00;;;;;19.17;51.66;97712.38;4914021;28;104987;-84
2021/10/22 01:22:41;;;;;;;;;4.00;4.00;;;;;19.15;51.29;97717.31;4904967;28;102464;-84
2021/10/22 01:25:10;;;;;;;;;4.33;4.00;;;;;19.15;51.45;97734.56;4922801;28;102236;-85
2021/10/22 01:27:41;;;;;;;;;2.00;2.00;;;;;19.15;51.76;97736.50;4911381;28;103003;-84
2021/10/22 01:30:12;;;;;;;;;4.00;3.00;;;;;19.15;51.52;97744.72;4913343;28;104180;-85
2021/10/22 01:32:39;;;;;;;;;4.00;3.00;;;;;19.14;51.64;97752.09;4921545;28;102529;-83
2021/10/22 01:35:08;;;;;;;;;3.33;2.00;;;;;19.15;51.53;97739.22;4915600;28;103494;-85
2021/10/22 01:37:37;;;;;;;;;4.00;4.00;;;;;19.11;51.40;97747.19;4919124;28;102420;-85
2021/10/22 01:40:05;;;;;;;;;4.00;4.00;;;;;19.15;51.54;97764.72;4906431;28;104301;-85
2021/10/22 01:42:32;;;;;;;;;3.33;2.00;;;;;19.14;51.34;97751.28;4928814;28;102369;-84
2021/10/22 01:44:59;;;;;;;;;3.00;2.00;;;;;19.14;51.64;97764.97;4921428;28;102631;-84
2021/10/22 01:47:26;;;;;;;;;1.67;1.67;;;;;19.14;51.54;97778.69;4924480;28;102391;-85
2021/10/22 01:49:55;;;;;;;;;3.00;3.00;;;;;19.13;51.56;97768.84;4912008;28;104119;-84
2021/10/22 01:52:22;;;;;;;;;2.67;2.67;;;;;19.12;50.99;97772.69;4934106;28;102638;-85
2021/10/22 01:54:49;;;;;;;;;2.67;2.67;;;;;19.12;51.37;97783.63;4920706;28;104263;-85
2021/10/22 01:57:16;;;;;;;;;3.00;2.33;;;;;19.13;51.23;97782.53;4924795;28;102643;-85
2021/10/22 01:59:46;;;;;;;;;3.00;3.00;;;;;19.12;51.49;97787.19;4923246;28;104390;-85
2021/10/22 02:02:14;;;;;;;;;3.67;3.00;;;;;19.12;51.39;97797.34;4925288;28;102485;-85
2021/10/22 02:04:41;;;;;;;;;3.00;2.67;;;;;19.10;51.50;97811.31;4928397;28;102360;-85
2021/10/22 02:07:08;;;;;;;;;2.00;2.00;;;;;19.10;51.58;97800.34;4928209;28;102307;-84
2021/10/22 02:09:35;;;;;;;;;2.00;2.00;;;;;19.09;51.50;97801.44;4920813;28;104371;-86
2021/10/22 02:12:03;;;;;;;;;2.67;1.33;;;;;19.11;51.59;97812.13;4919456;28;102367;-85
2021/10/22 02:14:30;;;;;;;;;3.00;3.00;;;;;19.10;51.52;97805.00;4963375;28;105021;-85
2021/10/22 02:16:57;;;;;;;;;2.67;2.33;;;;;19.10;51.73;97807.75;4968034;28;102679;-83
2021/10/22 02:19:24;;;;;;;;;6.00;3.00;;;;;19.10;51.69;97815.97;4972129;28;104306;-84
2021/10/22 02:21:51;;;;;;;;;2.00;2.00;;;;;19.09;51.43;97822.56;4966237;28;102447;-84
2021/10/22 02:24:18;;;;;;;;;4.00;2.00;;;;;19.07;51.70;97816.53;4959304;28;102485;-86
2021/10/22 02:26:45;;;;;;;;;2.00;2.00;;;;;19.08;51.58;97835.44;4977330;28;103924;-85
2021/10/22 02:29:13;;;;;;;;;2.00;2.00;;;;;19.08;51.25;97840.09;4954281;28;103736;-84
2021/10/22 02:31:40;;;;;;;;;1.67;1.67;;;;;19.07;51.37;97849.41;4963856;28;102494;-85
2021/10/22 02:34:07;;;;;;;;;2.00;2.00;;;;;19.08;51.42;97834.63;4965764;28;102809;-85
2021/10/22 02:36:35;;;;;;;;;3.00;2.00;;;;;19.05;51.39;97835.97;4959980;28;103626;-85
2021/10/22 02:39:02;;;;;;;;;2.00;2.00;;;;;19.05;51.27;97840.63;4962747;28;104071;-85
2021/10/22 02:41:29;;;;;;;;;1.00;1.00;;;;;19.04;51.41;97842.56;4969953;28;102863;-85
2021/10/22 02:43:56;;;;;;;;;1.67;1.33;;;;;19.05;51.52;97857.06;4969034;28;102460;-85
2021/10/22 02:46:23;;;;;;;;;2.00;2.00;;;;;19.05;51.54;97862.53;4964147;28;103845;-84
2021/10/22 02:48:50;;;;;;;;;2.00;2.00;;;;;19.05;51.56;97860.63;4968399;28;109386;-84
2021/10/22 02:51:17;;;;;;;;;3.00;2.00;;;;;19.05;51.64;97876.25;4970076;28;102599;-85
2021/10/22 02:53:44;;;;;;;;;1.67;1.67;;;;;19.02;50.94;97872.16;4954718;28;102926;-85
2021/10/22 02:56:11;;;;;;;;;1.67;1.67;;;;;19.04;51.69;97871.88;4968953;28;102353;-85
2021/10/22 02:58:38;;;;;;;;;1.00;1.00;;;;;19.04;51.68;97874.63;4965143;28;104042;-84
2021/10/22 03:01:06;;;;;;;;;2.00;1.67;;;;;19.03;51.60;97884.75;4943380;28;104289;-85
2021/10/22 03:03:33;;;;;;;;;2.00;2.00;;;;;19.04;51.25;97891.06;4969192;28;103717;-84
2021/10/22 03:06:00;;;;;;;;;2.00;1.67;;;;;19.00;51.61;97898.97;4961606;28;103840;-85
2021/10/22 03:08:27;;;;;;;;;2.00;1.00;;;;;19.03;51.39;97903.09;4941719;28;104276;-84
2021/10/22 03:10:55;;;;;;;;;2.00;2.00;;;;;19.02;51.35;97902.28;4972995;28;104957;-85
2021/10/22 03:13:22;;;;;;;;;2.00;2.00;;;;;19.02;51.48;97906.94;4971978;28;104131;-85
2021/10/22 03:15:49;;;;;;;;;2.00;2.00;;;;;19.01;51.45;97910.75;4957454;28;102907;-85
2021/10/22 03:18:16;;;;;;;;;2.67;2.67;;;;;19.02;51.23;97917.91;4967482;28;104044;-85
2021/10/22 03:20:43;;;;;;;;;2.00;2.00;;;;;19.01;51.35;97929.94;4967610;28;102047;-85
2021/10/22 03:23:10;;;;;;;;;2.33;2.00;;;;;19.01;51.67;97921.72;4967406;28;111268;-85
2021/10/22 03:25:37;;;;;;;;;1.00;1.00;;;;;19.01;51.14;97922.56;4952233;28;104369;-85
2021/10/22 03:28:04;;;;;;;;;2.00;2.00;;;;;18.99;51.28;97907.50;4968503;28;104428;-85
2021/10/22 03:30:34;;;;;;;;;1.00;1.00;;;;;19.02;51.32;97912.41;4964084;28;104046;-87
2021/10/22 03:33:01;;;;;;;;;2.00;1.33;;;;;19.00;51.62;97914.63;4962557;28;103239;-84
2021/10/22 03:35:29;;;;;;;;;1.00;1.00;;;;;19.01;51.26;97916.25;4950117;28;102657;-85
2021/10/22 03:37:56;;;;;;;;;0.33;0.00;;;;;19.01;51.26;97922.56;4965439;28;104075;-83
2021/10/22 03:40:24;;;;;;;;;2.00;2.00;;;;;19.01;51.49;97921.72;4971780;28;102395;-84
2021/10/22 03:42:54;;;;;;;;;1.33;1.33;;;;;19.00;51.12;97920.91;4969435;28;103237;-83
2021/10/22 03:45:25;;;;;;;;;1.67;1.00;;;;;19.00;51.18;97920.09;4960508;28;102712;-85
2021/10/22 03:47:53;;;;;;;;;1.67;1.00;;;;;19.01;51.22;97927.22;4933284;28;108742;-83
2021/10/22 03:50:22;;;;;;;;;1.00;1.00;;;;;18.98;51.21;97930.50;4964522;28;103311;-84
2021/10/22 03:52:49;;;;;;;;;2.00;2.00;;;;;18.98;51.20;97925.84;4951937;28;103540;-85
2021/10/22 03:55:17;;;;;;;;;1.00;1.00;;;;;19.00;51.05;97942.03;4971520;28;102772;-83
2021/10/22 03:57:44;;;;;;;;;2.00;2.00;;;;;19.01;51.41;97949.13;4968927;28;104898;-85
2021/10/22 04:00:16;;;;;;;;;1.00;1.00;;;;;19.00;51.21;97942.03;4960860;28;104043;-85
2021/10/22 04:02:44;;;;;;;;;2.33;1.00;;;;;19.00;51.26;97942.03;4961369;28;102605;-83
2021/10/22 04:05:11;;;;;;;;;1.00;1.00;;;;;18.97;51.33;97939.81;4960071;28;102466;-84
2021/10/22 04:07:40;;;;;;;;;1.00;1.00;;;;;18.99;51.07;97943.94;4966634;28;104631;-85
2021/10/22 04:10:10;;;;;;;;;2.00;1.33;;;;;18.99;51.50;97951.34;4957475;28;102308;-84
2021/10/22 04:12:40;;;;;;;;;1.00;1.00;;;;;18.99;51.67;97956.81;4945292;28;103259;-84
2021/10/22 04:15:08;;;;;;;;;1.00;1.00;;;;;18.98;51.37;97950.50;4953992;28;104425;-85
2021/10/22 04:17:35;;;;;;;;;1.33;1.33;;;;;18.99;51.40;97951.34;4962991;28;104059;-85
2021/10/22 04:20:02;;;;;;;;;2.00;2.00;;;;;18.99;51.32;97959.56;4966790;28;102484;-84
2021/10/22 04:22:30;;;;;;;;;1.00;0.67;;;;;18.99;50.97;97965.84;4962498;28;102386;-84
2021/10/22 04:24:57;;;;;;;;;1.67;1.33;;;;;18.98;51.43;97961.47;4969493;28;102603;-85
2021/10/22 04:27:24;;;;;;;;;1.67;1.00;;;;;18.98;51.37;97960.63;4968114;28;104032;-82
2021/10/22 04:29:51;;;;;;;;;1.00;1.00;;;;;18.98;51.46;97957.91;4953625;28;102166;-84
2021/10/22 04:32:18;;;;;;;;;0.67;0.00;;;;;18.98;51.17;97955.16;4953355;28;102545;-84
2021/10/22 04:34:45;;;;;;;;;1.00;1.00;;;;;18.95;51.68;97959.28;4958832;28;102659;-84
2021/10/22 04:37:31;;;;;;;;;2.00;2.00;;;;;18.97;51.20;97962.56;4956194;28;103826;-84
2021/10/22 04:42:47;;;;;;;;;1.00;1.00;;;;;18.96;51.35;97985.56;4957972;28;102487;-84
2021/10/22 04:48:40;;;;;;;;;1.00;1.00;;;;;18.95;51.56;97980.38;4965685;28;109466;-83
2021/10/22 04:51:07;;;;;;;;;1.67;1.67;;;;;18.95;51.74;97980.38;4966519;28;103270;-84
2021/10/22 04:53:37;;;;;;;;;1.00;1.00;;;;;18.91;51.56;97982.00;4968048;28;102739;-84
2021/10/22 04:56:04;;;;;;;;;0.67;0.67;;;;;18.94;51.39;97981.47;4973713;28;103796;-84
2021/10/22 04:58:31;;;;;;;;;1.00;1.00;;;;;18.93;51.33;97986.09;4939577;28;104543;-84
2021/10/22 05:00:59;;;;;;;;;1.00;1.00;;;;;18.94;51.34;97981.47;4970640;28;102283;-85
2021/10/22 05:03:27;;;;;;;;;0.67;0.33;;;;;18.93;51.19;97986.09;4972705;28;103274;-84
2021/10/22 05:05:54;;;;;;;;;2.00;1.00;;;;;18.93;51.43;97993.50;4951728;28;102286;-82
2021/10/22 05:08:21;;;;;;;;;1.33;1.00;;;;;18.93;51.39;98001.72;4959816;28;104050;-85
2021/10/22 05:10:48;;;;;;;;;2.00;0.67;;;;;18.93;51.33;98001.72;4973228;28;102141;-86
2021/10/22 05:13:16;;;;;;;;;1.67;1.67;;;;;18.92;51.44;98006.38;4962428;28;102667;-84
2021/10/22 05:15:46;;;;;;;;;0.67;0.00;;;;;18.90;51.45;98008.56;4965699;28;102683;-85
2021/10/22 05:18:13;;;;;;;;;1.00;1.00;;;;;18.90;51.68;98013.22;4963188;28;103950;-84
2021/10/22 05:20:41;;;;;;;;;2.00;2.00;;;;;18.90;51.55;98019.53;4966035;28;102604;-85
2021/10/22 05:23:11;;;;;;;;;1.33;1.00;;;;;18.90;51.81;98019.53;4963444;28;102429;-84
2021/10/22 05:25:38;;;;;;;;;1.00;1.00;;;;;18.88;51.56;98024.44;4994464;28;102409;-83
2021/10/22 05:28:05;;;;;;;;;2.00;1.00;;;;;18.88;51.99;98027.19;4927770;28;104272;-84
2021/10/22 05:30:32;;;;;;;;;1.00;1.00;;;;;18.88;51.81;98031.84;4958185;28;102446;-86
2021/10/22 05:33:00;;;;;;;;;1.00;1.00;;;;;18.87;51.82;98035.66;4972531;28;102747;-85
2021/10/22 05:35:27;;;;;;;;;1.00;1.00;;;;;18.87;51.93;98041.97;4971406;28;102818;-84
2021/10/22 05:37:54;;;;;;;;;1.00;1.00;;;;;18.87;51.90;98041.13;4962308;28;104166;-85
2021/10/22 05:40:22;;;;;;;;;1.00;1.00;;;;;18.87;51.93;98061.13;4974483;28;102620;-84
2021/10/22 05:42:49;;;;;;;;;0.67;0.67;;;;;18.88;51.90;98061.97;4970804;28;103013;-85
2021/10/22 05:45:16;;;;;;;;;1.00;1.00;;;;;18.88;51.99;98075.66;4969707;28;102602;-86
2021/10/22 05:47:43;;;;;;;;;1.00;1.00;;;;;18.88;52.07;98073.75;4970896;28;104098;-83
2021/10/22 05:50:10;;;;;;;;;1.00;1.00;;;;;18.89;52.26;98080.06;4972769;28;104146;-84
2021/10/22 05:52:37;;;;;;;;;0.00;0.00;;;;;18.89;52.08;98082.81;4974834;28;102104;-85
2021/10/22 05:55:05;;;;;;;;;0.67;0.67;;;;;18.88;52.34;98089.38;4950246;28;103505;-86
2021/10/22 05:57:34;;;;;;;;;1.00;1.00;;;;;18.87;51.93;98079.50;4965652;28;104034;-84
2021/10/22 06:00:01;;;;;;;;;1.00;1.00;;;;;18.87;51.91;98088.53;4956660;28;106837;-85
2021/10/22 06:02:28;;;;;;;;;1.00;1.00;;;;;18.87;52.39;98088.53;4952876;28;102656;-84
2021/10/22 06:04:56;;;;;;;;;1.00;1.00;;;;;18.85;52.41;98087.16;4930334;28;102788;-85
2021/10/22 06:07:23;;;;;;;;;1.00;1.00;;;;;18.86;52.09;98095.13;4939119;28;104473;-85
2021/10/22 06:09:50;;;;;;;;;1.00;1.00;;;;;18.86;52.03;98094.31;4971722;28;102610;-85
2021/10/22 06:12:17;;;;;;;;;1.00;1.00;;;;;18.87;52.39;98102.25;4949999;28;102550;-84
2021/10/22 06:14:44;;;;;;;;;1.00;1.00;;;;;18.86;52.46;98095.13;4911800;28;103703;-85
2021/10/22 06:17:11;;;;;;;;;1.00;1.00;;;;;18.87;52.11;98098.66;4922682;28;102843;-84
2021/10/22 06:19:40;;;;;;;;;1.00;1.00;;;;;18.87;52.20;98102.25;4924853;28;102725;-85
2021/10/22 06:22:19;;;;;;;;;1.00;1.00;;;;;18.86;52.23;98095.13;4923080;28;102691;-85
2021/10/22 06:24:46;;;;;;;;;2.00;1.00;;;;;18.86;52.18;98100.63;4925901;28;102672;-85
2021/10/22 06:27:13;;;;;;;;;2.00;0.33;;;;;18.86;52.34;98097.88;4934672;28;104172;-85
2021/10/22 06:29:40;;;;;;;;;1.67;1.67;;;;;18.85;52.48;98101.69;4924779;28;102232;-85
2021/10/22 06:32:07;;;;;;;;;0.00;0.00;;;;;18.84;52.41;98101.94;4929384;28;102505;-85
2021/10/22 06:34:38;;;;;;;;;0.33;0.00;;;;;18.84;52.05;98099.22;4928636;28;102938;-85
2021/10/22 06:37:05;;;;;;;;;1.00;1.00;;;;;18.84;52.64;98105.53;4916801;28;104037;-85
2021/10/22 06:39:32;;;;;;;;;2.00;2.00;;;;;18.84;52.55;98101.94;4926755;28;102343;-84
2021/10/22 06:42:02;;;;;;;;;2.00;2.00;;;;;18.84;52.46;98107.44;4923445;28;102621;-84
2021/10/22 06:44:29;;;;;;;;;1.00;1.00;;;;;18.83;52.16;98105.78;4933371;28;102663;-84
2021/10/22 06:46:56;;;;;;;;;1.00;1.00;;;;;18.83;52.06;98111.25;4927180;28;103981;-84
2021/10/22 06:49:23;;;;;;;;;0.00;0.00;;;;;18.83;52.13;98108.50;4926457;28;102649;-84
2021/10/22 06:51:50;;;;;;;;;0.00;0.00;;;;;18.82;52.26;98113.19;4932558;28;102565;-84
2021/10/22 06:54:17;;;;;;;;;0.33;0.33;;;;;18.83;52.26;98108.50;4919581;28;102564;-84
2021/10/22 06:56:44;;;;;;;;;0.67;0.67;;;;;18.82;52.42;98121.41;4918152;28;104029;-83
2021/10/22 06:59:12;;;;;;;;;1.00;0.00;;;;;18.82;52.67;98117.84;4933088;28;102568;-85
2021/10/22 07:01:39;;;;;;;;;1.00;0.67;;;;;18.82;52.54;98124.16;4928895;28;103554;-85
2021/10/22 07:04:09;;;;;;;;;0.67;0.67;;;;;18.83;52.70;98138.66;4921009;28;103133;-85
2021/10/22 07:09:38;;;;;;;;;1.00;1.00;;;;;18.82;52.65;98143.31;4852728;28;103009;-84
2021/10/22 07:12:06;;;;;;;;;1.00;1.00;;;;;18.82;52.86;98147.97;4909930;28;102913;-86
2021/10/22 07:14:35;;;;;;;;;0.00;0.00;;;;;18.81;52.65;98146.31;4924324;28;104293;-86
2021/10/22 07:17:04;;;;;;;;;0.00;0.00;;;;;18.81;52.59;98136.19;4927570;28;104091;-85
2021/10/22 07:19:32;;;;;;;;;1.67;1.67;;;;;18.82;52.94;98145.25;4924249;28;102856;-85
2021/10/22 07:22:05;;;;;;;;;1.00;1.00;;;;;18.81;52.92;98146.31;4912144;28;102753;-85
2021/10/22 07:24:32;;;;;;;;;1.00;1.00;;;;;18.81;52.92;98141.66;4921880;28;103658;-85
2021/10/22 07:27:00;;;;;;;;;1.00;1.00;;;;;18.82;53.41;98145.25;4913985;28;104153;-85
2021/10/22 07:29:27;;;;;;;;;1.00;1.00;;;;;18.82;53.43;98148.81;4924165;28;102288;-93
2021/10/22 07:31:55;;;;;;;;;0.67;0.00;;;;;18.84;53.85;98145.78;4912488;28;102566;-85
2021/10/22 07:34:22;;;;;;;;;1.00;1.00;;;;;18.84;53.50;98154.00;4920222;28;102800;-86
2021/10/22 07:36:50;;;;;;;;;1.33;0.00;;;;;18.84;53.89;98159.47;4921225;28;104118;-85
2021/10/22 07:39:17;;;;;;;;;1.00;1.00;;;;;18.84;54.10;98156.75;4918482;28;102323;-87
2021/10/22 07:42:04;;;;;;;;;0.67;0.67;;;;;18.83;54.04;98172.34;4918060;28;102498;-87
2021/10/22 07:44:49;;;;;;;;;0.67;0.67;;;;;18.85;54.21;98169.34;4925903;28;103120;-86
2021/10/22 07:47:16;;;;;;;;;0.00;0.00;;;;;18.84;54.22;98167.69;4912657;28;104230;-85
2021/10/22 07:49:48;;;;;;;;;1.00;1.00;;;;;18.85;54.43;98177.56;4935376;28;102565;-86
2021/10/22 07:52:19;;;;;;;;;1.00;0.33;;;;;18.82;54.59;98173.47;4914125;28;102522;-86
2021/10/22 07:54:46;;;;;;;;;0.67;0.67;;;;;18.82;54.47;98176.19;4923309;28;103413;-84
2021/10/22 07:57:14;;;;;;;;;2.00;1.00;;;;;18.83;54.51;98177.00;4931801;28;104081;-83
2021/10/22 07:59:41;;;;;;;;;2.00;1.00;;;;;18.83;54.60;98182.47;4921744;28;102467;-81
2021/10/22 08:02:11;;;;;;;;;0.00;0.00;;;;;18.82;54.86;98180.84;4934252;28;102560;-83
2021/10/22 08:04:43;;;;;;;;;2.00;0.33;;;;;18.82;55.21;98191.81;4918552;28;102217;-83
2021/10/22 08:07:11;;;;;;;;;1.00;1.00;;;;;18.83;55.39;98190.69;4921191;28;108963;-82
2021/10/22 08:09:40;;;;;;;;;0.33;0.33;;;;;18.83;55.42;98193.44;4923428;28;102586;-83
2021/10/22 08:12:07;;;;;;;;;0.67;0.67;;;;;18.82;55.09;98198.13;4914126;28;103544;-82
2021/10/22 08:14:34;;;;;;;;;1.00;1.00;;;;;18.82;54.83;98200.03;4926923;28;104959;-82
2021/10/22 08:17:01;;;;;;;;;0.67;0.67;;;;;18.79;55.26;98187.66;4921592;28;103822;-86
2021/10/22 08:19:28;;;;;;;;;0.33;0.00;;;;;18.80;55.15;98199.44;4919666;28;102616;-86
2021/10/22 08:24:41;;;;;;;;;0.33;0.33;;;;;18.78;55.40;98196.16;4923541;28;102409;-86
2021/10/22 08:27:08;;;;;;;;;1.00;1.00;;;;;18.79;55.31;98197.78;4927228;28;104017;-86
2021/10/22 08:29:36;;;;;;;;;2.33;1.00;;;;;18.79;55.34;98204.09;4920794;28;102488;-86
2021/10/22 08:32:03;;;;;;;;;1.00;1.00;;;;;18.78;55.76;98201.66;4920683;28;102526;-86
2021/10/22 08:34:31;;;;;;;;;2.00;0.33;;;;;18.78;55.55;98204.38;4919815;28;102579;-86
2021/10/22 08:36:58;;;;;;;;;2.00;1.00;;;;;18.75;55.33;98202.16;4924079;28;103692;-86
2021/10/22 08:39:26;;;;;;;;;1.00;0.00;;;;;18.76;55.51;98204.63;4922231;28;102423;-86
2021/10/22 08:41:53;;;;;;;;;0.33;0.33;;;;;18.77;55.60;98195.34;4923853;28;102448;-85
2021/10/22 08:44:23;;;;;;;;;1.00;1.00;;;;;18.78;55.19;98196.16;4928235;28;102201;-86
2021/10/22 08:46:49;;;;;;;;;1.00;0.33;;;;;18.78;55.21;98201.66;4903027;28;105960;-85
2021/10/22 08:49:17;;;;;;;;;0.33;0.33;;;;;18.77;55.81;98200.00;4925179;28;102369;-86
2021/10/22 08:51:44;;;;;;;;;1.00;1.00;;;;;18.76;55.10;98210.13;4923143;28;103523;-86
2021/10/22 08:54:12;;;;;;;;;1.67;0.33;;;;;18.73;55.70;98208.72;4921587;28;102803;-86
2021/10/22 08:56:40;;;;;;;;;0.67;0.00;;;;;18.73;55.40;98197.75;4919599;28;104102;-86
2021/10/22 08:59:08;;;;;;;;;1.00;1.00;;;;;18.75;55.75;98210.38;4930624;28;102448;-85
2021/10/22 09:02:14;;;;;;;;;1.00;0.67;;;;;18.75;55.74;98213.09;4922060;28;102600;-86
2021/10/22 09:04:44;;;;;;;;;1.67;1.00;;;;;18.73;55.88;98210.66;4917985;28;104197;-86
2021/10/22 09:07:16;;;;;;;;;1.00;1.00;;;;;18.72;56.11;98206.25;4926894;28;108877;-86
2021/10/22 09:10:02;;;;;;;;;0.00;0.00;;;;;18.73;55.56;98211.44;4932298;28;102451;-86
2021/10/22 09:12:56;;;;;;;;;2.00;0.00;;;;;18.73;55.94;98216.94;4926239;28;102335;-85
2021/10/22 09:15:28;;;;;;;;;0.00;0.00;;;;;18.72;56.23;98203.50;4990728;28;102367;-85
2021/10/22 09:17:56;;;;;;;;;0.67;0.67;;;;;18.73;55.71;98213.38;4886095;28;104562;-84
2021/10/22 09:20:24;;;;;;;;;1.33;0.00;;;;;18.69;55.76;98209.50;4964552;28;102462;-85
2021/10/22 09:22:55;;;;;;;;;0.00;0.00;;;;;18.71;55.84;98207.34;4956511;28;102561;-85
2021/10/22 09:25:24;;;;;;;;;0.33;0.00;;;;;18.73;55.77;98212.56;4970280;28;103656;-84
2021/10/22 09:27:57;;;;;;;;;0.00;0.00;;;;;18.70;55.88;98211.97;4967680;28;103772;-85
2021/10/22 09:30:32;;;;;;;;;0.00;0.00;;;;;18.70;55.87;98209.25;4965755;28;103471;-84
2021/10/22 09:33:13;;;;;;;;;0.00;0.00;;;;;18.71;55.92;98208.16;4952933;28;102246;-84
2021/10/22 09:35:45;;;;;;;;;1.00;0.67;;;;;18.71;55.63;98208.16;4964245;28;106124;-84
2021/10/22 09:38:25;;;;;;;;;0.00;0.00;;;;;18.70;55.83;98202.94;4953748;28;110794;-85
2021/10/22 09:41:04;;;;;;;;;0.00;0.00;;;;;18.70;56.12;98206.50;4963756;28;102452;-85
2021/10/22 09:43:39;;;;;;;;;0.00;0.00;;;;;18.71;55.67;98207.34;4958767;28;102479;-85
2021/10/22 09:46:16;;;;;;;;;0.00;0.00;;;;;18.71;56.15;98213.63;4958399;28;102569;-85
2021/10/22 09:48:45;;;;;;;;;0.00;0.00;;;;;18.71;56.26;98201.84;4963916;28;108828;-85
2021/10/22 09:51:35;;;;;;;;;0.00;0.00;;;;;18.71;55.95;98202.69;4963021;28;102396;-85
2021/10/22 09:54:06;;;;;;;;;0.67;0.33;;;;;18.70;55.80;98206.50;4960846;28;111270;-85
2021/10/22 09:56:33;;;;;;;;;1.00;1.00;;;;;18.71;56.09;98202.69;4965674;28;102588;-85
2021/10/22 09:59:10;;;;;;;;;1.00;1.00;;;;;18.69;55.96;98199.38;4940780;28;103486;-86
2021/10/22 10:01:39;;;;;;;;;1.00;1.00;;;;;18.69;55.63;98199.38;4944440;28;103043;-85
2021/10/22 10:04:07;;;;;;;;;0.00;0.00;;;;;18.68;55.83;98207.88;4953174;28;103101;-86
2021/10/22 10:06:54;;;;;;;;;0.33;0.00;;;;;18.68;55.61;98200.47;4948819;28;102319;-86
2021/10/22 10:09:22;;;;;;;;;1.00;0.00;;;;;18.67;55.61;98192.53;4950825;28;104079;-85
2021/10/22 10:11:49;;;;;;;;;1.00;0.67;;;;;18.68;55.51;98191.44;4949754;28;102488;-85
2021/10/22 10:14:17;;;;;;;;;1.00;1.00;;;;;18.67;55.35;98185.13;4971689;28;103578;-86
2021/10/22 10:16:47;;;;;;;;;1.00;0.00;;;;;18.67;55.48;98182.41;4957769;28;102157;-85
2021/10/22 10:19:31;;;;;;;;;0.00;0.00;;;;;18.69;56.21;98190.31;4957034;28;112266;-86
2021/10/22 10:22:00;;;;;;;;;0.00;0.00;;;;;18.71;54.95;98191.72;4964968;28;111242;-86
2021/10/22 10:24:33;;;;;;;;;1.00;1.00;;;;;18.71;55.77;98186.25;4945947;28;102727;-86
2021/10/22 10:27:06;;;;;;;;;0.00;0.00;;;;;18.67;55.37;98189.78;4955936;28;102579;-85
2021/10/22 10:29:38;;;;;;;;;1.00;1.00;;;;;18.63;54.41;98189.50;4959738;28;104017;-86
2021/10/22 10:32:06;;;;;;;;;0.00;0.00;;;;;18.61;54.12;98190.81;4945652;28;103737;-86
2021/10/22 10:34:38;;;;;;;;;1.00;0.00;;;;;18.61;53.34;98185.34;4953379;28;110453;-85
2021/10/22 10:37:20;;;;;;;;;0.67;0.33;;;;;18.58;52.75;98183.97;4954992;28;102479;-86
2021/10/22 10:39:48;;;;;;;;;0.00;0.00;;;;;18.57;52.34;98179.56;4954700;28;108912;-85
2021/10/22 10:42:34;;;;;;;;;0.00;0.00;;;;;18.57;51.07;98167.78;4939393;28;103555;-86
2021/10/22 10:45:07;;;;;;;;;0.00;0.00;;;;;18.60;53.67;98178.22;4950392;28;102980;-86
2021/10/22 10:47:38;;;;;;;;;0.00;0.00;;;;;18.61;55.56;98169.75;4956549;28;102598;-85
2021/10/22 10:50:07;;;;;;;;;0.00;0.00;;;;;18.63;55.65;98166.75;4949897;28;104435;-86
2021/10/22 10:52:37;;;;;;;;;0.67;0.67;;;;;18.63;55.30;98153.88;4950611;28;102384;-84
2021/10/22 10:55:31;;;;;;;;;0.00;0.00;;;;;18.64;54.87;98161.00;4939529;28;103153;-85
2021/10/22 10:58:07;;;;;;;;;2.33;0.33;;;;;18.65;55.18;98148.94;4941173;28;102622;-85
2021/10/22 11:00:41;;;;;;;;;0.00;0.00;;;;;18.66;55.36;98145.13;4955162;28;104070;-84
2021/10/22 11:03:13;;;;;;;;;1.00;1.00;;;;;18.66;55.10;98139.66;4944900;28;102440;-85
2021/10/22 11:05:47;;;;;;;;;1.00;1.00;;;;;18.67;54.93;98129.53;4954724;28;103429;-85
2021/10/22 11:08:24;;;;;;;;;1.00;1.00;;;;;18.65;55.26;98129.78;4961476;28;104340;-86
2021/10/22 11:10:56;;;;;;;;;1.67;1.00;;;;;18.67;55.36;98126.78;4958724;28;109223;-85
2021/10/22 11:13:24;;;;;;;;;1.00;0.00;;;;;18.66;55.82;98133.34;4962456;28;103639;-84
2021/10/22 11:15:51;;;;;;;;;0.00;0.00;;;;;18.66;55.02;98111.44;4957566;28;102655;-82
2021/10/22 11:18:19;;;;;;;;;1.00;0.00;;;;;18.67;55.84;98121.31;4951583;28;102652;-84
2021/10/22 11:21:02;;;;;;;;;0.67;0.00;;;;;18.67;55.13;98111.19;4953603;28;109601;-85
2021/10/22 11:23:29;;;;;;;;;1.00;1.00;;;;;18.68;55.50;98110.09;4963104;28;102591;-86
2021/10/22 11:25:57;;;;;;;;;0.00;0.00;;;;;18.69;54.79;98111.72;4962137;28;102651;-85
2021/10/22 11:28:32;;;;;;;;;0.00;0.00;;;;;18.71;54.75;98114.22;4960356;28;102957;-84
2021/10/22 11:31:00;;;;;;;;;1.00;0.00;;;;;18.71;54.00;98108.72;4963412;28;104714;-84
2021/10/22 11:33:27;;;;;;;;;0.33;0.33;;;;;18.73;54.29;98116.69;4940866;28;102578;-85
2021/10/22 11:35:54;;;;;;;;;1.33;0.00;;;;;18.73;54.41;98100.25;4939276;28;103362;-85
2021/10/22 11:38:27;;;;;;;;;0.00;0.00;;;;;18.73;54.10;98112.84;4958944;28;102464;-85
2021/10/22 11:41:14;;;;;;;;;0.00;0.00;;;;;18.73;54.18;98103.84;4955326;28;104359;-85
2021/10/22 11:44:08;;;;;;;;;0.00;0.00;;;;;18.73;54.09;98090.13;4966955;28;102570;-85
2021/10/22 11:46:47;;;;;;;;;0.00;0.00;;;;;18.75;54.57;98098.91;4967030;28;105150;-85